createdAt,value
2022-10-28T00:00:11.199Z,0.32
2022-10-28T00:02:40.908Z,0.35
2022-10-28T00:05:11.439Z,0.08
2022-10-28T00:07:40.834Z,0.10
2022-10-28T00:10:09.944Z,0.30
2022-10-28T00:12:38.816Z,0.15
2022-10-28T00:15:07.928Z,0.57
2022-10-28T00:17:36.324Z,0.00
2022-10-28T00:20:05.312Z,0.80
2022-10-28T00:22:33.405Z,0.32
2022-10-28T00:25:05.848Z,0.40
2022-10-28T00:27:36.413Z,0.10
2022-10-28T00:30:05.310Z,0.13
2022-10-28T00:32:33.634Z,0.08
2022-10-28T00:35:01.675Z,0.40
2022-10-28T00:37:29.681Z,1.80
2022-10-28T00:39:57.803Z,0.45
2022-10-28T00:42:27.854Z,0.00
2022-10-28T00:44:58.203Z,0.22
2022-10-28T00:47:43.620Z,2.25
2022-10-28T00:50:21.069Z,1.60
2022-10-28T00:52:54.691Z,0.35
2022-10-28T00:55:24.466Z,1.00
2022-10-28T00:57:58.564Z,0.00
2022-10-28T01:00:27.601Z,0.22
2022-10-28T01:02:57.607Z,0.43
2022-10-28T01:05:28.781Z,0.40
2022-10-28T01:08:00.412Z,0.20
2022-10-28T01:10:48.051Z,0.77
2022-10-28T01:13:26.817Z,0.10
2022-10-28T01:16:02.108Z,0.00
2022-10-28T01:18:37.234Z,1.65
2022-10-28T01:21:41.262Z,0.28
2022-10-28T01:24:20.908Z,0.10
2022-10-28T01:27:09.447Z,0.00
2022-10-28T01:30:08.581Z,0.15
2022-10-28T01:32:49.254Z,0.60
2022-10-28T01:35:22.313Z,8.35
2022-10-28T01:38:01.964Z,1.80
2022-10-28T01:40:36.959Z,0.38
2022-10-28T01:43:13.670Z,3.40
2022-10-28T01:45:50.562Z,0.00
2022-10-28T01:48:23.745Z,0.13
2022-10-28T01:50:58.409Z,0.52
2022-10-28T01:53:31.377Z,0.17
2022-10-28T01:56:04.275Z,0.63
2022-10-28T01:58:33.758Z,0.17
2022-10-28T02:01:06.297Z,0.95
2022-10-28T02:03:36.696Z,0.10
2022-10-28T02:06:07.093Z,0.05
2022-10-28T02:09:00.870Z,0.00
2022-10-28T02:11:53.195Z,0.30
2022-10-28T02:14:38.953Z,0.15
2022-10-28T02:17:18.400Z,2.17
2022-10-28T02:19:52.177Z,0.10
2022-10-28T02:22:27.896Z,0.00
2022-10-28T02:25:03.424Z,0.60
2022-10-28T02:27:36.630Z,2.08
2022-10-28T02:30:10.334Z,0.10
2022-10-28T02:32:42.203Z,1.75
2022-10-28T02:35:18.483Z,0.00
2022-10-28T02:37:49.820Z,0.73
2022-10-28T02:40:25.869Z,0.00
2022-10-28T02:42:56.754Z,0.10
2022-10-28T02:45:29.406Z,0.43
2022-10-28T02:48:03.895Z,1.15
2022-10-28T02:50:37.134Z,0.22
2022-10-28T02:53:12.595Z,1.08
2022-10-28T02:55:45.397Z,0.10
2022-10-28T02:58:13.726Z,2.47
2022-10-28T03:00:45.781Z,0.22
2022-10-28T03:03:14.280Z,0.03
2022-10-28T03:05:43.761Z,0.10
2022-10-28T03:08:11.951Z,0.15
2022-10-28T03:10:39.946Z,0.20
2022-10-28T03:13:08.042Z,3.97
2022-10-28T03:15:36.103Z,1.13
2022-10-28T03:18:04.531Z,0.30
2022-10-28T03:20:32.525Z,0.00
2022-10-28T03:23:02.465Z,0.45
2022-10-28T03:25:30.721Z,0.30
2022-10-28T03:27:58.785Z,1.85
2022-10-28T03:30:26.840Z,0.20
2022-10-28T03:32:55.235Z,0.60
2022-10-28T03:35:23.481Z,0.10
2022-10-28T03:37:51.634Z,0.22
2022-10-28T03:40:23.837Z,0.10
2022-10-28T03:42:52.198Z,0.25
2022-10-28T03:45:20.573Z,0.30
2022-10-28T03:47:48.694Z,0.00
2022-10-28T03:50:16.968Z,0.88
2022-10-28T03:52:45.469Z,0.40
2022-10-28T03:55:13.620Z,0.05
2022-10-28T03:57:43.198Z,0.20
2022-10-28T04:00:12.329Z,0.10
2022-10-28T04:02:40.509Z,0.95
2022-10-28T04:05:09.494Z,0.73
2022-10-28T04:07:37.551Z,3.35
2022-10-28T04:10:06.404Z,0.13
2022-10-28T04:12:34.420Z,1.20
2022-10-28T04:15:04.451Z,0.08
2022-10-28T04:17:34.762Z,0.38
2022-10-28T04:20:02.881Z,0.05
2022-10-28T04:22:30.934Z,0.10
2022-10-28T04:24:58.994Z,0.00
2022-10-28T04:27:27.118Z,0.22
2022-10-28T04:29:55.146Z,0.73
2022-10-28T04:32:24.733Z,0.00
2022-10-28T04:34:52.721Z,0.32
2022-10-28T04:37:23.343Z,0.00
2022-10-28T04:39:51.496Z,0.10
2022-10-28T04:42:19.669Z,3.15
2022-10-28T04:44:47.768Z,2.40
2022-10-28T04:47:18.529Z,1.85
2022-10-28T04:49:48.054Z,0.08
2022-10-28T04:52:16.339Z,0.40
2022-10-28T04:54:44.581Z,0.73
2022-10-28T04:57:14.999Z,2.83
2022-10-28T04:59:44.235Z,0.52
2022-10-28T05:02:14.870Z,0.95
2022-10-28T05:04:43.013Z,0.22
2022-10-28T05:07:12.420Z,1.55
2022-10-28T05:09:40.483Z,2.92
2022-10-28T05:12:08.673Z,0.00
2022-10-28T05:14:36.802Z,1.00
2022-10-28T05:17:04.883Z,0.10
2022-10-28T05:19:33.047Z,0.80
2022-10-28T05:22:01.041Z,1.17
2022-10-28T05:24:30.422Z,0.10
2022-10-28T05:27:00.871Z,0.85
2022-10-28T05:29:33.201Z,0.00
2022-10-28T05:32:02.058Z,0.30
2022-10-28T05:34:30.222Z,0.75
2022-10-28T05:36:58.469Z,0.45
2022-10-28T05:39:26.660Z,0.60
2022-10-28T05:41:56.156Z,0.20
2022-10-28T05:44:24.329Z,0.15
2022-10-28T05:46:54.155Z,3.72
2022-10-28T05:49:22.739Z,0.80
2022-10-28T05:51:50.983Z,0.10
2022-10-28T05:54:19.350Z,1.65
2022-10-28T05:56:47.551Z,0.70
2022-10-28T05:59:17.069Z,0.40
2022-10-28T06:01:45.400Z,0.55
2022-10-28T06:04:13.513Z,0.05
2022-10-28T06:06:46.512Z,0.17
2022-10-28T06:09:14.661Z,0.40
2022-10-28T06:11:41.221Z,0.10
2022-10-28T06:14:11.710Z,0.10
2022-10-28T06:16:43.341Z,0.28
2022-10-28T06:19:11.413Z,0.20
2022-10-28T06:21:39.565Z,2.10
2022-10-28T06:24:12.131Z,0.20
2022-10-28T06:26:40.563Z,0.00
2022-10-28T06:29:10.691Z,0.22
2022-10-28T06:31:42.592Z,1.88
2022-10-28T06:34:11.384Z,0.08
2022-10-28T06:36:39.533Z,0.32
2022-10-28T06:39:07.648Z,0.00
2022-10-28T06:41:35.737Z,0.10
2022-10-28T06:44:04.104Z,2.20
2022-10-28T06:46:33.690Z,1.13
2022-10-28T06:49:04.687Z,0.10
2022-10-28T06:51:33.359Z,0.57
2022-10-28T06:54:01.528Z,0.10
2022-10-28T06:56:29.571Z,0.20
2022-10-28T06:58:57.689Z,0.00
2022-10-28T07:01:25.787Z,0.20
2022-10-28T07:03:55.149Z,0.43
2022-10-28T07:06:24.563Z,0.50
2022-10-28T07:08:53.320Z,1.80
2022-10-28T07:11:21.743Z,0.63
2022-10-28T07:13:49.976Z,1.05
2022-10-28T07:16:18.078Z,0.28
2022-10-28T07:18:46.145Z,1.15
2022-10-28T07:21:14.836Z,0.32
2022-10-28T07:23:44.245Z,0.47
2022-10-28T07:26:12.336Z,0.60
2022-10-28T07:28:40.497Z,0.70
2022-10-28T07:31:08.617Z,2.92
2022-10-28T07:33:36.721Z,0.52
2022-10-28T07:36:05.921Z,0.10
2022-10-28T07:38:35.321Z,0.22
2022-10-28T07:41:07.388Z,0.80
2022-10-28T07:43:37.957Z,1.25
2022-10-28T07:46:07.027Z,0.10
2022-10-28T07:48:37.585Z,0.50
2022-10-28T07:51:07.778Z,0.20
2022-10-28T07:53:36.837Z,0.25
2022-10-28T07:56:09.647Z,5.15
2022-10-28T07:58:38.229Z,0.55
2022-10-28T08:01:08.489Z,0.65
2022-10-28T08:03:38.853Z,0.35
2022-10-28T08:06:09.943Z,0.20
2022-10-28T08:08:38.802Z,0.00
2022-10-28T08:11:12.460Z,0.00
2022-10-28T08:13:40.674Z,0.43
2022-10-28T08:16:11.584Z,0.00
2022-10-28T08:18:40.518Z,0.38
2022-10-28T08:21:10.441Z,0.30
2022-10-28T08:23:39.410Z,0.08
2022-10-28T08:26:11.182Z,0.00
2022-10-28T08:28:39.374Z,0.10
2022-10-28T08:31:10.259Z,0.00
2022-10-28T08:33:39.367Z,2.92
2022-10-28T08:36:12.471Z,8.32
2022-10-28T08:38:45.279Z,9.27
2022-10-28T08:41:30.933Z,10.30
2022-10-28T08:44:23.664Z,6.88
2022-10-28T08:47:05.611Z,6.05
2022-10-28T08:49:36.891Z,7.55
2022-10-28T08:52:12.303Z,7.47
2022-10-28T08:54:47.202Z,6.18
2022-10-28T08:57:21.547Z,8.95
2022-10-28T08:59:52.974Z,7.22
2022-10-28T09:02:23.090Z,7.70
2022-10-28T09:04:57.742Z,5.05
2022-10-28T09:07:26.529Z,8.77
2022-10-28T09:09:55.161Z,7.85
2022-10-28T09:12:36.434Z,10.95
2022-10-28T09:15:19.084Z,8.63
2022-10-28T09:17:54.550Z,4.07
2022-10-28T09:20:34.109Z,10.45
2022-10-28T09:23:10.536Z,6.70
2022-10-28T09:25:49.270Z,6.55
2022-10-28T09:28:34.491Z,8.32
2022-10-28T09:31:14.429Z,7.88
2022-10-28T09:33:52.202Z,7.13
2022-10-28T09:36:25.214Z,5.22
2022-10-28T09:38:56.147Z,8.25
2022-10-28T09:41:28.784Z,6.38
2022-10-28T09:44:04.874Z,6.72
2022-10-28T09:46:36.278Z,5.78
2022-10-28T09:49:12.056Z,5.40
2022-10-28T09:51:50.787Z,7.68
2022-10-28T09:54:20.405Z,4.15
2022-10-28T09:56:48.471Z,8.68
2022-10-28T09:59:17.912Z,5.60
2022-10-28T10:01:47.855Z,27.27
2022-10-28T10:04:20.908Z,8.98
2022-10-28T10:06:55.180Z,3.35
2022-10-28T10:09:27.164Z,8.27
2022-10-28T10:11:58.136Z,4.13
2022-10-28T10:14:32.409Z,4.95
2022-10-28T10:17:04.346Z,4.72
2022-10-28T10:19:59.944Z,4.53
2022-10-28T10:22:33.058Z,5.13
2022-10-28T10:25:01.132Z,10.75
2022-10-28T10:27:31.071Z,4.00
2022-10-28T10:30:00.821Z,4.72
2022-10-28T10:32:32.039Z,7.72
2022-10-28T10:35:06.662Z,6.78
2022-10-28T10:37:36.603Z,7.53
2022-10-28T10:40:13.407Z,4.97
2022-10-28T10:42:51.675Z,8.23
2022-10-28T10:45:31.093Z,6.60
2022-10-28T10:48:14.121Z,4.43
2022-10-28T10:50:44.984Z,4.45
2022-10-28T10:53:21.271Z,5.10
2022-10-28T10:55:55.956Z,5.63
2022-10-28T10:58:26.795Z,6.45
2022-10-28T11:00:59.130Z,4.95
2022-10-28T11:03:30.067Z,5.93
2022-10-28T11:08:48.199Z,4.45
2022-10-28T11:11:20.865Z,4.88
2022-10-28T11:13:50.481Z,4.50
2022-10-28T11:16:22.122Z,3.47
2022-10-28T11:18:54.314Z,2.83
2022-10-28T11:21:37.005Z,3.72
2022-10-28T11:24:16.988Z,2.72
2022-10-28T11:26:58.701Z,5.55
2022-10-28T11:29:27.090Z,4.63
2022-10-28T11:32:15.985Z,6.93
2022-10-28T11:35:23.993Z,4.93
2022-10-28T11:38:04.304Z,4.28
2022-10-28T11:40:40.406Z,4.45
2022-10-28T11:43:26.071Z,6.57
2022-10-28T11:46:03.479Z,5.75
2022-10-28T11:54:08.655Z,7.25
2022-10-28T11:56:40.737Z,7.88
2022-10-28T11:59:38.446Z,3.17
2022-10-28T12:02:27.494Z,4.10
2022-10-28T12:05:08.732Z,3.42
2022-10-28T12:08:02.320Z,7.30
2022-10-28T12:10:44.173Z,5.88
2022-10-28T12:13:22.161Z,5.80
2022-10-28T12:15:57.290Z,5.72
2022-10-28T12:18:33.417Z,2.72
2022-10-28T12:21:11.378Z,6.05
2022-10-28T12:23:44.997Z,6.13
2022-10-28T12:26:16.650Z,6.22
2022-10-28T12:28:47.824Z,8.07
2022-10-28T12:31:22.966Z,5.28
2022-10-28T12:33:54.185Z,7.55
2022-10-28T12:36:31.955Z,7.28
2022-10-28T12:39:03.762Z,4.97
2022-10-28T12:41:46.886Z,4.20
2022-10-28T12:44:17.485Z,5.63
2022-10-28T12:46:57.171Z,5.07
2022-10-28T12:49:32.823Z,4.97
2022-10-28T12:52:09.327Z,7.25
2022-10-28T12:54:43.373Z,3.35
2022-10-28T12:57:15.054Z,4.22
2022-10-28T12:59:46.719Z,3.00
2022-10-28T13:02:20.905Z,3.95
2022-10-28T13:04:49.324Z,3.95
2022-10-28T13:07:56.210Z,9.52
2022-10-28T13:10:35.450Z,4.95
2022-10-28T13:13:25.655Z,3.53
2022-10-28T13:16:25.935Z,2.45
2022-10-28T13:19:28.823Z,5.38
2022-10-28T13:22:28.732Z,2.58
2022-10-28T13:25:07.158Z,4.43
2022-10-28T13:30:06.537Z,5.60
2022-10-28T13:32:39.079Z,3.72
2022-10-28T13:35:17.218Z,6.32
2022-10-28T13:37:48.565Z,5.57
2022-10-28T13:40:40.159Z,4.82
2022-10-28T13:43:20.077Z,1.80
2022-10-28T13:45:52.467Z,5.22
2022-10-28T13:48:54.259Z,2.88
2022-10-28T13:51:50.707Z,6.05
2022-10-28T13:54:27.985Z,3.50
2022-10-28T13:59:43.067Z,4.50
2022-10-28T14:02:35.156Z,5.70
2022-10-28T14:05:07.329Z,4.72
2022-10-28T14:07:37.335Z,5.65
2022-10-28T14:10:24.624Z,4.30
2022-10-28T14:12:57.390Z,3.65
2022-10-28T14:15:28.177Z,3.35
2022-10-28T14:18:15.871Z,2.90
2022-10-28T14:21:00.840Z,5.57
2022-10-28T14:23:52.097Z,4.20
2022-10-28T14:26:20.430Z,8.32
2022-10-28T14:28:56.776Z,7.95
2022-10-28T14:31:45.475Z,5.35
2022-10-28T14:34:36.677Z,7.03
2022-10-28T14:37:33.453Z,4.63
2022-10-28T14:40:15.414Z,10.45
2022-10-28T14:42:59.635Z,5.85
2022-10-28T14:45:45.095Z,2.40
2022-10-28T14:48:44.988Z,4.00
2022-10-28T14:51:16.800Z,4.70
2022-10-28T14:53:47.150Z,4.45
2022-10-28T14:58:52.831Z,3.97
2022-10-28T15:01:25.927Z,5.10
2022-10-28T15:04:01.744Z,3.88
2022-10-28T15:06:39.059Z,5.57
2022-10-28T15:11:49.921Z,3.83
2022-10-28T15:14:30.881Z,4.78
2022-10-28T15:17:04.000Z,4.03
2022-10-28T15:19:36.062Z,5.30
2022-10-28T15:22:18.175Z,4.70
2022-10-28T15:25:00.896Z,5.78
2022-10-28T15:27:31.291Z,5.45
2022-10-28T15:29:59.842Z,4.93
2022-10-28T15:32:32.279Z,4.32
2022-10-28T15:35:00.969Z,7.70
2022-10-28T15:37:31.617Z,6.13
2022-10-28T15:40:20.365Z,8.07
2022-10-28T15:42:53.647Z,6.70
2022-10-28T15:45:26.008Z,5.07
2022-10-28T15:47:57.204Z,8.23
2022-10-28T15:50:31.582Z,4.18
2022-10-28T15:53:34.148Z,5.07
2022-10-28T15:56:23.409Z,9.73
2022-10-28T15:59:04.287Z,7.35
2022-10-28T16:01:39.351Z,6.25
2022-10-28T16:06:56.997Z,6.85
2022-10-28T16:09:32.165Z,7.65
2022-10-28T16:12:04.785Z,5.72
2022-10-28T16:14:37.681Z,4.75
2022-10-28T16:17:08.289Z,6.07
2022-10-28T16:19:39.287Z,7.82
2022-10-28T16:22:12.950Z,5.28
2022-10-28T16:24:41.088Z,8.85
2022-10-28T16:27:18.718Z,5.95
2022-10-28T16:29:46.922Z,6.70
2022-10-28T16:32:17.061Z,8.05
2022-10-28T16:34:45.218Z,6.88
2022-10-28T16:37:22.985Z,6.28
2022-10-28T16:39:54.247Z,11.27
2022-10-28T16:42:23.646Z,7.43
2022-10-28T16:44:53.046Z,7.57
2022-10-28T16:47:23.085Z,4.88
2022-10-28T16:49:57.379Z,7.55
2022-10-28T16:52:32.030Z,6.15
2022-10-28T16:55:00.132Z,6.60
2022-10-28T16:57:28.937Z,5.78
2022-10-28T16:59:57.622Z,4.40
2022-10-28T17:02:28.665Z,5.78
2022-10-28T17:04:57.473Z,5.03
2022-10-28T17:07:25.977Z,5.45
2022-10-28T17:09:56.724Z,8.73
2022-10-28T17:12:28.711Z,7.25
2022-10-28T17:14:56.958Z,5.53
2022-10-28T17:17:24.975Z,4.55
2022-10-28T17:19:53.077Z,6.65
2022-10-28T17:22:21.185Z,13.05
2022-10-28T17:24:49.243Z,5.88
2022-10-28T17:27:19.250Z,5.05
2022-10-28T17:29:47.478Z,3.72
2022-10-28T17:32:15.913Z,5.03
2022-10-28T17:34:44.123Z,6.22
2022-10-28T17:37:12.190Z,3.83
2022-10-28T17:39:40.270Z,6.00
2022-10-28T17:42:08.397Z,5.90
2022-10-28T17:44:37.981Z,5.00
2022-10-28T17:47:08.404Z,7.05
2022-10-28T17:49:36.583Z,6.28
2022-10-28T17:52:04.705Z,5.07
2022-10-28T17:54:32.904Z,6.85
2022-10-28T17:57:01.269Z,7.07
2022-10-28T17:59:29.420Z,3.83
2022-10-28T18:01:59.029Z,6.13
2022-10-28T18:04:30.490Z,6.00
2022-10-28T18:06:59.369Z,8.95
2022-10-28T18:09:31.615Z,5.65
2022-10-28T18:11:59.832Z,7.07
2022-10-28T18:14:29.153Z,4.60
2022-10-28T18:16:58.633Z,7.60
2022-10-28T18:19:26.817Z,7.30
2022-10-28T18:21:54.875Z,6.32
2022-10-28T18:24:26.211Z,6.55
2022-10-28T18:26:57.097Z,7.65
2022-10-28T18:29:28.657Z,6.60
2022-10-28T18:31:58.148Z,4.32
2022-10-28T18:34:26.259Z,8.48
2022-10-28T18:36:54.302Z,7.75
2022-10-28T18:40:29.870Z,5.25
2022-10-28T18:42:58.015Z,6.10
2022-10-28T18:45:28.200Z,5.57
2022-10-28T18:47:58.571Z,5.93
2022-10-28T18:50:27.116Z,7.97
2022-10-28T18:52:55.514Z,6.55
2022-10-28T18:55:26.266Z,6.15
2022-10-28T18:57:54.375Z,6.72
2022-10-28T19:00:23.066Z,6.60
2022-10-28T19:02:52.200Z,8.18
2022-10-28T19:05:24.306Z,7.65
2022-10-28T19:07:52.661Z,7.78
2022-10-28T19:10:20.953Z,6.75
2022-10-28T19:12:52.764Z,8.80
2022-10-28T19:15:21.291Z,9.68
2022-10-28T19:17:49.363Z,7.10
2022-10-28T19:20:21.263Z,5.40
2022-10-28T19:22:50.778Z,7.22
2022-10-28T19:25:18.994Z,6.43
2022-10-28T19:27:47.160Z,8.55
2022-10-28T19:30:15.602Z,4.90
2022-10-28T19:32:43.812Z,5.88
2022-10-28T19:35:15.084Z,5.82
2022-10-28T19:37:43.467Z,6.72
2022-10-28T19:40:14.000Z,11.25
2022-10-28T19:42:42.134Z,7.07
2022-10-28T19:45:11.130Z,5.90
2022-10-28T19:47:39.177Z,5.97
2022-10-28T19:50:08.433Z,6.30
2022-10-28T19:52:36.522Z,5.75
2022-10-28T19:55:08.817Z,5.90
2022-10-28T19:57:41.916Z,6.97
2022-10-28T20:00:13.155Z,8.50
2022-10-28T20:02:41.486Z,8.25
2022-10-28T20:05:10.065Z,7.05
2022-10-28T20:07:40.547Z,6.57
2022-10-28T20:10:09.799Z,4.43
2022-10-28T20:12:37.926Z,8.00
2022-10-28T20:15:08.913Z,6.70
2022-10-28T20:17:37.165Z,6.38
2022-10-28T20:20:05.961Z,4.40
2022-10-28T20:22:36.548Z,6.35
2022-10-28T20:25:09.403Z,5.43
2022-10-28T20:27:37.528Z,11.05
2022-10-28T20:30:08.529Z,10.55
2022-10-28T20:32:36.822Z,5.20
2022-10-28T20:35:05.191Z,6.35
2022-10-28T20:37:33.282Z,5.18
2022-10-28T20:40:06.247Z,6.93
2022-10-28T20:42:35.951Z,7.43
2022-10-28T20:45:04.956Z,9.02
2022-10-28T20:47:34.748Z,5.82
2022-10-28T20:50:02.845Z,5.75
2022-10-28T20:52:31.505Z,5.35
2022-10-28T20:54:59.702Z,6.00
2022-10-28T20:57:27.912Z,5.30
2022-10-28T20:59:56.137Z,6.65
2022-10-28T21:02:24.292Z,7.47
2022-10-28T21:04:53.817Z,5.07
2022-10-28T21:07:24.239Z,6.13
2022-10-28T21:09:52.404Z,7.13
2022-10-28T21:12:20.509Z,4.45
2022-10-28T21:14:48.664Z,6.93
2022-10-28T21:17:16.771Z,4.43
2022-10-28T21:19:45.030Z,9.18
2022-10-28T21:22:14.519Z,5.65
2022-10-28T21:24:42.735Z,6.35
2022-10-28T21:27:11.385Z,4.57
2022-10-28T21:29:39.914Z,5.82
2022-10-28T21:32:08.155Z,7.55
2022-10-28T21:34:36.204Z,8.73
2022-10-28T21:37:04.312Z,5.93
2022-10-28T21:39:35.861Z,7.50
2022-10-28T21:42:04.286Z,5.40
2022-10-28T21:44:32.620Z,6.88
2022-10-28T21:47:01.588Z,8.50
2022-10-28T21:49:31.709Z,7.65
2022-10-28T21:51:59.879Z,6.25
2022-10-28T21:54:28.051Z,7.97
2022-10-28T21:56:57.560Z,5.40
2022-10-28T21:59:25.834Z,5.45
2022-10-28T22:01:54.668Z,6.15
2022-10-28T22:04:22.916Z,5.40
2022-10-28T22:06:51.071Z,5.32
2022-10-28T22:09:19.246Z,6.38
2022-10-28T22:11:47.578Z,8.85
2022-10-28T22:14:17.473Z,7.38
2022-10-28T22:16:45.729Z,9.55
2022-10-28T22:19:15.482Z,7.18
2022-10-28T22:21:44.043Z,5.07
2022-10-28T22:24:12.397Z,6.93
2022-10-28T22:26:40.484Z,7.38
2022-10-28T22:29:08.575Z,6.80
2022-10-28T22:31:38.157Z,7.75
2022-10-28T22:34:06.418Z,13.52
2022-10-28T22:36:34.523Z,9.05
2022-10-28T22:39:02.754Z,8.15
2022-10-28T22:41:32.899Z,6.05
2022-10-28T22:44:02.814Z,7.97
2022-10-28T22:46:33.441Z,8.68
2022-10-28T22:49:03.475Z,11.02
2022-10-28T22:51:31.639Z,7.85
2022-10-28T22:53:59.813Z,9.95
2022-10-28T22:56:30.576Z,8.93
2022-10-28T22:59:00.968Z,7.85
2022-10-28T23:01:30.703Z,9.07
2022-10-28T23:04:02.675Z,8.57
2022-10-28T23:06:31.345Z,8.82
2022-10-28T23:09:08.045Z,9.85
2022-10-28T23:11:41.318Z,5.63
2022-10-28T23:14:22.741Z,8.03
2022-10-28T23:16:57.416Z,6.95
2022-10-28T23:19:35.261Z,9.82
2022-10-28T23:22:07.551Z,10.10
2022-10-28T23:24:39.404Z,9.50
2022-10-28T23:27:10.865Z,8.50
2022-10-28T23:29:41.984Z,10.20
2022-10-28T23:32:13.270Z,9.38
2022-10-28T23:34:46.620Z,12.95
2022-10-28T23:37:15.312Z,7.55
2022-10-28T23:39:43.436Z,7.10
2022-10-28T23:42:11.511Z,8.07
2022-10-28T23:44:39.642Z,8.00
2022-10-28T23:47:08.310Z,9.25
2022-10-28T23:49:36.477Z,7.63
2022-10-28T23:52:06.387Z,8.13
2022-10-28T23:54:34.637Z,7.55
2022-10-28T23:57:02.744Z,7.53
2022-10-28T23:59:30.931Z,8.50
